createdAt,value
2022-09-27T00:02:31.457Z,10.72
2022-09-27T00:05:34.676Z,10.89
2022-09-27T00:08:36.663Z,10.91
2022-09-27T00:11:38.644Z,10.87
2022-09-27T00:14:40.303Z,10.85
2022-09-27T00:17:41.950Z,10.93
2022-09-27T00:20:44.939Z,10.94
2022-09-27T00:23:46.618Z,10.99
2022-09-27T00:26:48.488Z,11.00
2022-09-27T00:29:50.072Z,11.07
2022-09-27T00:32:51.825Z,11.10
2022-09-27T00:35:54.958Z,11.03
2022-09-27T00:38:57.116Z,10.95
2022-09-27T00:41:58.772Z,10.98
2022-09-27T00:45:08.990Z,10.96
2022-09-27T00:48:13.562Z,11.00
2022-09-27T00:51:16.626Z,11.02
2022-09-27T00:54:18.767Z,10.97
2022-09-27T00:57:22.503Z,11.00
2022-09-27T01:00:24.179Z,11.06
2022-09-27T01:03:29.970Z,11.09
2022-09-27T01:06:33.038Z,11.05
2022-09-27T01:09:35.112Z,11.05
2022-09-27T01:12:42.691Z,11.07
2022-09-27T01:15:48.632Z,10.96
2022-09-27T01:19:07.098Z,10.95
2022-09-27T01:22:15.227Z,10.99
2022-09-27T01:25:26.922Z,11.01
2022-09-27T01:28:38.893Z,11.02
2022-09-27T01:31:43.627Z,11.05
2022-09-27T01:34:47.721Z,10.96
2022-09-27T01:37:53.127Z,10.94
2022-09-27T01:40:59.665Z,10.96
2022-09-27T01:44:02.877Z,10.99
2022-09-27T01:47:09.725Z,10.98
2022-09-27T01:50:15.132Z,10.96
2022-09-27T01:53:18.933Z,10.86
2022-09-27T01:56:22.938Z,10.91
2022-09-27T01:59:26.887Z,10.87
2022-09-27T02:02:31.555Z,10.85
2022-09-27T02:05:36.638Z,10.65
2022-09-27T02:08:40.297Z,10.26
2022-09-27T02:11:45.200Z,10.35
2022-09-27T02:14:50.528Z,10.33
2022-09-27T02:17:56.877Z,10.47
2022-09-27T02:21:00.846Z,10.50
2022-09-27T02:24:03.730Z,10.51
2022-09-27T02:27:09.883Z,10.46
2022-09-27T02:30:12.937Z,10.54
2022-09-27T02:33:15.996Z,10.47
2022-09-27T02:36:17.686Z,10.21
2022-09-27T02:39:19.730Z,9.94
2022-09-27T02:42:21.435Z,9.71
2022-09-27T02:45:23.703Z,9.85
2022-09-27T02:48:31.593Z,9.90
2022-09-27T02:51:40.473Z,10.00
2022-09-27T02:54:47.060Z,9.98
2022-09-27T02:57:55.875Z,9.92
2022-09-27T03:01:02.163Z,10.04
2022-09-27T03:04:10.810Z,10.05
2022-09-27T03:07:13.319Z,10.15
2022-09-27T03:10:16.566Z,10.09
2022-09-27T03:13:18.161Z,9.93
2022-09-27T03:16:19.829Z,9.65
2022-09-27T03:19:23.010Z,9.70
2022-09-27T03:22:24.611Z,9.70
2022-09-27T03:25:26.358Z,9.31
2022-09-27T03:28:27.987Z,9.26
2022-09-27T03:31:29.779Z,9.47
2022-09-27T03:34:32.867Z,9.61
2022-09-27T03:37:34.525Z,9.52
2022-09-27T03:40:36.136Z,9.60
2022-09-27T03:43:37.856Z,9.52
2022-09-27T03:46:39.737Z,9.48
2022-09-27T03:49:43.182Z,9.17
2022-09-27T03:52:44.923Z,9.16
2022-09-27T03:55:46.613Z,9.23
2022-09-27T03:58:48.480Z,9.30
2022-09-27T04:01:50.301Z,9.28
2022-09-27T04:04:53.483Z,9.19
2022-09-27T04:07:55.188Z,9.05
2022-09-27T04:10:56.888Z,9.06
2022-09-27T04:13:58.535Z,9.07
2022-09-27T04:17:00.334Z,9.01
2022-09-27T04:20:03.774Z,9.03
2022-09-27T04:23:05.538Z,9.02
2022-09-27T04:26:07.409Z,9.19
2022-09-27T04:29:09.158Z,9.25
2022-09-27T04:32:10.886Z,8.89
2022-09-27T04:35:14.662Z,8.81
2022-09-27T04:38:16.239Z,8.81
2022-09-27T04:41:17.928Z,8.63
2022-09-27T04:44:20.509Z,8.54
2022-09-27T04:47:22.122Z,8.51
2022-09-27T04:50:25.466Z,8.40
2022-09-27T04:53:27.128Z,8.41
2022-09-27T04:56:28.710Z,8.35
2022-09-27T04:59:30.309Z,8.34
2022-09-27T05:02:32.045Z,8.43
2022-09-27T05:05:35.221Z,8.39
2022-09-27T05:08:36.886Z,8.47
2022-09-27T05:11:38.548Z,8.53
2022-09-27T05:14:40.136Z,8.67
2022-09-27T05:17:41.769Z,8.70
2022-09-27T05:20:44.898Z,8.59
2022-09-27T05:23:47.920Z,8.65
2022-09-27T05:26:49.733Z,8.76
2022-09-27T05:29:51.405Z,8.78
2022-09-27T05:32:53.131Z,8.80
2022-09-27T05:35:56.853Z,8.86
2022-09-27T05:38:58.545Z,9.10
2022-09-27T05:42:00.175Z,9.22
2022-09-27T05:45:01.807Z,9.36
2022-09-27T05:48:03.630Z,9.48
2022-09-27T05:51:06.732Z,9.52
2022-09-27T05:54:11.200Z,9.57
2022-09-27T05:57:12.799Z,9.50
2022-09-27T06:00:14.602Z,9.55
2022-09-27T06:03:16.933Z,9.67
2022-09-27T06:06:19.913Z,9.63
2022-09-27T06:09:21.561Z,9.59
2022-09-27T06:12:23.230Z,9.65
2022-09-27T06:15:25.102Z,9.61
2022-09-27T06:18:26.696Z,9.57
2022-09-27T06:21:29.678Z,9.50
2022-09-27T06:24:31.514Z,9.55
2022-09-27T06:27:34.123Z,9.62
2022-09-27T06:30:38.508Z,9.71
2022-09-27T06:33:40.194Z,9.78
2022-09-27T06:36:43.157Z,9.83
2022-09-27T06:39:44.751Z,9.89
2022-09-27T06:42:46.399Z,9.95
2022-09-27T06:45:48.194Z,9.99
2022-09-27T06:48:50.030Z,9.97
2022-09-27T06:51:53.342Z,9.94
2022-09-27T06:54:55.069Z,10.02
2022-09-27T06:57:57.354Z,10.01
2022-09-27T07:00:59.083Z,10.02
2022-09-27T07:04:00.899Z,10.00
2022-09-27T07:07:03.834Z,10.01
2022-09-27T07:10:09.675Z,10.06
2022-09-27T07:13:11.760Z,10.05
2022-09-27T07:16:13.726Z,10.13
2022-09-27T07:19:15.488Z,10.19
2022-09-27T07:22:18.562Z,10.18
2022-09-27T07:25:20.164Z,10.27
2022-09-27T07:28:22.381Z,10.27
2022-09-27T07:31:24.255Z,10.14
2022-09-27T07:34:25.904Z,10.18
2022-09-27T07:37:28.879Z,10.14
2022-09-27T07:40:30.608Z,10.22
2022-09-27T07:43:32.421Z,10.16
2022-09-27T07:46:34.136Z,10.08
2022-09-27T07:49:35.824Z,10.12
2022-09-27T07:52:42.750Z,10.11
2022-09-27T07:55:44.369Z,10.20
2022-09-27T07:58:46.694Z,10.02
2022-09-27T08:01:48.450Z,9.95
2022-09-27T08:04:50.085Z,9.75
2022-09-27T08:07:56.200Z,9.85
2022-09-27T08:10:57.894Z,9.88
2022-09-27T08:13:59.598Z,9.84
2022-09-27T08:17:01.180Z,9.81
2022-09-27T08:20:03.292Z,9.88
2022-09-27T08:23:06.545Z,9.92
2022-09-27T08:26:08.227Z,9.85
2022-09-27T08:29:09.897Z,9.89
2022-09-27T08:32:12.008Z,9.98
2022-09-27T08:35:13.712Z,9.90
2022-09-27T08:38:16.802Z,10.04
2022-09-27T08:41:24.062Z,10.11
2022-09-27T08:44:29.847Z,10.08
2022-09-27T08:47:34.903Z,10.01
2022-09-27T08:50:40.251Z,10.08
2022-09-27T08:53:48.199Z,10.14
2022-09-27T08:56:49.817Z,10.08
2022-09-27T08:59:59.010Z,10.10
2022-09-27T09:03:01.755Z,10.12
2022-09-27T09:06:09.473Z,10.15
2022-09-27T09:09:18.585Z,10.23
2022-09-27T09:12:27.428Z,10.34
2022-09-27T09:15:35.887Z,10.39
2022-09-27T09:18:47.070Z,10.49
2022-09-27T09:21:54.619Z,10.51
2022-09-27T09:25:04.926Z,10.44
2022-09-27T09:28:13.823Z,10.57
2022-09-27T09:31:22.094Z,10.72
2022-09-27T09:34:25.445Z,10.73
2022-09-27T09:37:33.293Z,10.70
2022-09-27T09:40:40.560Z,10.73
2022-09-27T09:43:45.555Z,10.73
2022-09-27T09:46:49.643Z,10.63
2022-09-27T09:49:53.834Z,10.82
2022-09-27T09:52:57.459Z,11.00
2022-09-27T09:56:02.686Z,11.00
2022-09-27T09:59:11.009Z,11.09
2022-09-27T10:02:21.508Z,11.09
2022-09-27T10:05:23.971Z,11.04
2022-09-27T10:08:25.760Z,11.12
2022-09-27T10:11:32.674Z,11.01
2022-09-27T10:14:34.335Z,10.96
2022-09-27T10:17:37.332Z,10.79
2022-09-27T10:20:39.492Z,10.58
2022-09-27T10:23:55.966Z,10.34
2022-09-27T10:27:00.477Z,10.18
2022-09-27T10:30:02.089Z,10.07
2022-09-27T10:33:05.258Z,10.11
2022-09-27T10:36:22.400Z,10.24
2022-09-27T10:39:23.955Z,9.95
2022-09-27T10:42:34.293Z,9.77
2022-09-27T10:45:36.142Z,9.40
2022-09-27T10:48:40.349Z,9.13
2022-09-27T10:51:43.385Z,9.29
2022-09-27T10:54:52.838Z,9.38
2022-09-27T10:57:56.358Z,9.46
2022-09-27T11:00:59.420Z,9.58
2022-09-27T11:04:01.147Z,9.57
2022-09-27T11:07:13.068Z,9.53
2022-09-27T11:10:22.333Z,9.55
2022-09-27T11:13:25.414Z,9.62
2022-09-27T11:16:37.145Z,9.60
2022-09-27T11:19:52.814Z,9.60
2022-09-27T11:23:16.609Z,9.60
2022-09-27T11:26:24.737Z,9.52
2022-09-27T11:29:33.677Z,9.69
2022-09-27T11:32:43.500Z,9.78
2022-09-27T11:35:53.090Z,9.86
2022-09-27T11:39:02.502Z,9.82
2022-09-27T11:42:15.049Z,9.91
2022-09-27T11:48:52.108Z,9.90
2022-09-27T11:52:00.721Z,9.83
2022-09-27T11:55:20.099Z,9.92
2022-09-27T11:58:27.719Z,9.92
2022-09-27T12:01:38.058Z,9.85
2022-09-27T12:04:51.442Z,9.88
2022-09-27T12:08:01.747Z,9.97
2022-09-27T12:11:10.750Z,9.97
2022-09-27T12:14:16.656Z,9.97
2022-09-27T12:17:21.051Z,9.90
2022-09-27T12:20:24.443Z,9.79
2022-09-27T12:23:27.497Z,9.85
2022-09-27T12:26:34.168Z,9.91
2022-09-27T12:29:37.769Z,9.98
2022-09-27T12:32:46.693Z,10.08
2022-09-27T12:35:51.547Z,10.04
2022-09-27T12:38:56.194Z,10.00
2022-09-27T12:42:01.559Z,10.04
2022-09-27T12:45:03.248Z,10.02
2022-09-27T12:48:12.200Z,9.95
2022-09-27T12:51:14.907Z,9.86
2022-09-27T12:54:31.817Z,9.96
2022-09-27T12:57:39.782Z,10.18
2022-09-27T13:00:43.789Z,10.04
2022-09-27T13:04:00.354Z,10.01
2022-09-27T13:07:11.395Z,10.04
2022-09-27T13:10:32.832Z,10.28
2022-09-27T13:13:36.694Z,10.36
2022-09-27T13:16:42.246Z,10.62
2022-09-27T13:19:45.303Z,10.76
2022-09-27T13:22:46.931Z,10.84
2022-09-27T13:25:53.044Z,10.83
2022-09-27T13:29:00.758Z,11.02
2022-09-27T13:32:19.260Z,11.18
2022-09-27T13:35:23.423Z,11.14
2022-09-27T13:38:25.111Z,11.13
2022-09-27T13:41:28.736Z,10.94
2022-09-27T13:44:38.606Z,10.82
2022-09-27T13:47:44.556Z,10.68
2022-09-27T13:50:51.696Z,10.53
2022-09-27T13:53:57.105Z,10.42
2022-09-27T13:56:59.568Z,10.35
2022-09-27T14:00:02.039Z,10.35
2022-09-27T14:03:06.809Z,10.38
2022-09-27T14:06:14.001Z,10.38
2022-09-27T14:09:18.848Z,10.36
2022-09-27T14:12:21.846Z,10.37
2022-09-27T14:15:25.203Z,10.23
2022-09-27T14:18:27.851Z,10.21
2022-09-27T14:21:32.692Z,10.18
2022-09-27T14:24:44.409Z,10.14
2022-09-27T14:27:46.026Z,10.14
2022-09-27T14:30:47.672Z,10.10
2022-09-27T14:33:49.684Z,10.12
2022-09-27T14:36:52.721Z,10.20
2022-09-27T14:39:55.645Z,10.18
2022-09-27T14:42:58.767Z,10.33
2022-09-27T14:46:01.150Z,10.46
2022-09-27T14:49:11.696Z,10.67
2022-09-27T14:52:17.880Z,10.84
2022-09-27T14:55:20.641Z,10.84
2022-09-27T14:58:45.655Z,10.81
2022-09-27T15:01:48.547Z,10.96
2022-09-27T15:04:50.786Z,10.78
2022-09-27T15:07:54.704Z,10.76
2022-09-27T15:10:57.050Z,10.58
2022-09-27T15:13:59.645Z,10.45
2022-09-27T15:17:01.312Z,10.26
2022-09-27T15:20:04.598Z,10.41
2022-09-27T15:23:26.403Z,10.48
2022-09-27T15:26:35.020Z,10.57
2022-09-27T15:29:36.702Z,10.52
2022-09-27T15:32:38.293Z,10.51
2022-09-27T15:35:39.956Z,10.41
2022-09-27T15:38:43.786Z,10.47
2022-09-27T15:42:00.714Z,10.35
2022-09-27T15:45:02.410Z,10.35
2022-09-27T15:48:06.522Z,10.40
2022-09-27T15:51:35.717Z,10.24
2022-09-27T15:54:38.749Z,10.29
2022-09-27T15:57:40.807Z,10.35
2022-09-27T16:00:51.240Z,10.32
2022-09-27T16:03:52.941Z,10.21
2022-09-27T16:06:54.625Z,10.12
2022-09-27T16:09:57.595Z,10.14
2022-09-27T16:12:59.228Z,10.11
2022-09-27T16:16:02.297Z,10.06
2022-09-27T16:19:04.248Z,10.14
2022-09-27T16:22:05.923Z,10.44
2022-09-27T16:25:09.142Z,10.36
2022-09-27T16:28:11.249Z,10.23
2022-09-27T16:31:13.672Z,10.07
2022-09-27T16:34:15.314Z,9.99
2022-09-27T16:37:17.082Z,9.92
2022-09-27T16:40:20.194Z,9.99
2022-09-27T16:43:26.356Z,9.92
2022-09-27T16:46:28.045Z,9.88
2022-09-27T16:49:29.956Z,9.95
2022-09-27T16:52:31.975Z,9.71
2022-09-27T16:55:35.573Z,9.65
2022-09-27T16:58:37.255Z,9.61
2022-09-27T17:01:38.905Z,9.62
2022-09-27T17:04:40.644Z,9.60
2022-09-27T17:07:42.370Z,9.59
2022-09-27T17:10:45.717Z,9.53
2022-09-27T17:13:50.879Z,9.57
2022-09-27T17:16:52.794Z,9.57
2022-09-27T17:19:54.470Z,9.61
2022-09-27T17:22:56.131Z,9.47
2022-09-27T17:26:09.070Z,9.47
2022-09-27T17:29:11.000Z,9.32
2022-09-27T17:32:12.691Z,9.17
2022-09-27T17:35:14.318Z,9.23
2022-09-27T17:38:15.981Z,9.39
2022-09-27T17:41:19.871Z,9.24
2022-09-27T17:44:21.574Z,9.37
2022-09-27T17:47:23.299Z,9.30
2022-09-27T17:50:24.976Z,9.34
2022-09-27T17:53:26.842Z,9.28
2022-09-27T17:56:29.848Z,9.19
2022-09-27T17:59:32.530Z,9.08
2022-09-27T18:02:34.828Z,9.13
2022-09-27T18:05:36.835Z,9.03
2022-09-27T18:08:38.520Z,9.13
2022-09-27T18:11:41.874Z,9.09
2022-09-27T18:14:43.995Z,9.12
2022-09-27T18:17:45.911Z,9.22
2022-09-27T18:20:47.623Z,9.26
2022-09-27T18:23:50.023Z,9.23
2022-09-27T18:26:53.824Z,9.36
2022-09-27T18:29:55.520Z,9.29
2022-09-27T18:32:57.099Z,9.15
2022-09-27T18:36:04.809Z,9.14
2022-09-27T18:39:06.872Z,9.13
2022-09-27T18:42:10.065Z,9.14
2022-09-27T18:45:12.027Z,9.11
2022-09-27T18:48:13.694Z,9.03
2022-09-27T18:51:16.455Z,9.14
2022-09-27T18:54:19.213Z,9.02
2022-09-27T18:57:22.892Z,8.92
2022-09-27T19:00:24.934Z,8.75
2022-09-27T19:03:27.169Z,8.66
2022-09-27T19:06:28.922Z,8.51
2022-09-27T19:09:30.525Z,8.50
2022-09-27T19:12:33.860Z,8.50
2022-09-27T19:15:35.622Z,8.52
2022-09-27T19:18:38.276Z,8.62
2022-09-27T19:21:41.472Z,8.55
2022-09-27T19:24:43.692Z,8.44
2022-09-27T19:27:47.097Z,8.42
2022-09-27T19:30:49.071Z,8.42
2022-09-27T19:33:52.403Z,8.45
2022-09-27T19:36:55.774Z,8.32
2022-09-27T19:39:57.356Z,8.33
2022-09-27T19:43:00.393Z,8.32
2022-09-27T19:46:05.821Z,8.43
2022-09-27T19:49:07.521Z,8.39
2022-09-27T19:52:09.255Z,8.51
2022-09-27T19:55:11.417Z,8.49
2022-09-27T19:58:14.711Z,8.60
2022-09-27T20:01:17.221Z,8.58
2022-09-27T20:04:19.164Z,8.71
2022-09-27T20:07:21.000Z,8.65
2022-09-27T20:10:22.666Z,8.54
2022-09-27T20:13:26.362Z,8.61
2022-09-27T20:16:28.488Z,8.58
2022-09-27T20:19:30.504Z,8.62
2022-09-27T20:22:32.174Z,8.53
2022-09-27T20:25:34.257Z,8.62
2022-09-27T20:28:40.515Z,8.54
2022-09-27T20:32:03.010Z,8.64
2022-09-27T20:35:04.034Z,8.50
2022-09-27T20:38:05.778Z,8.49
2022-09-27T20:41:07.563Z,8.29
2022-09-27T20:44:11.902Z,8.24
2022-09-27T20:47:13.507Z,8.36
2022-09-27T20:50:15.149Z,8.39
2022-09-27T20:53:16.737Z,8.36
2022-09-27T20:56:19.217Z,8.39
2022-09-27T20:59:22.856Z,8.41
2022-09-27T21:02:24.829Z,8.41
2022-09-27T21:05:26.398Z,8.32
2022-09-27T21:08:29.268Z,8.35
2022-09-27T21:11:30.908Z,8.37
2022-09-27T21:14:33.942Z,8.34
2022-09-27T21:17:35.541Z,8.45
2022-09-27T21:20:37.122Z,8.41
2022-09-27T21:23:44.164Z,8.48
2022-09-27T21:26:46.263Z,8.44
2022-09-27T21:29:49.310Z,8.44
2022-09-27T21:32:52.997Z,8.44
2022-09-27T21:35:54.664Z,8.54
2022-09-27T21:38:56.795Z,8.52
2022-09-27T21:41:58.435Z,8.59
2022-09-27T21:45:01.481Z,8.68
2022-09-27T21:48:03.081Z,8.82
2022-09-27T21:51:05.805Z,8.77
2022-09-27T21:54:08.470Z,8.77
2022-09-27T21:57:10.075Z,8.69
2022-09-27T22:00:13.727Z,8.75
2022-09-27T22:03:15.310Z,8.69
2022-09-27T22:06:18.502Z,8.69
2022-09-27T22:09:20.470Z,8.72
2022-09-27T22:12:22.033Z,8.71
2022-09-27T22:15:25.022Z,8.79
2022-09-27T22:18:26.622Z,8.82
2022-09-27T22:21:29.007Z,8.77
2022-09-27T22:24:30.592Z,8.91
2022-09-27T22:27:32.261Z,8.82
2022-09-27T22:30:35.477Z,8.65
2022-09-27T22:33:37.112Z,8.62
2022-09-27T22:36:38.702Z,8.69
2022-09-27T22:39:40.276Z,8.73
2022-09-27T22:42:41.858Z,8.84
2022-09-27T22:45:44.911Z,8.86
2022-09-27T22:48:46.511Z,8.91
2022-09-27T22:51:48.176Z,8.73
2022-09-27T22:54:49.736Z,8.74
2022-09-27T22:57:51.329Z,8.71
2022-09-27T23:00:54.417Z,8.70
2022-09-27T23:03:56.177Z,8.81
2022-09-27T23:06:59.708Z,8.84
2022-09-27T23:10:01.281Z,8.85
2022-09-27T23:13:02.903Z,8.94
2022-09-27T23:16:07.416Z,8.87
2022-09-27T23:19:09.156Z,8.92
2022-09-27T23:22:10.767Z,8.89
2022-09-27T23:25:12.338Z,8.97
2022-09-27T23:28:13.944Z,8.87
2022-09-27T23:31:17.143Z,8.87
2022-09-27T23:34:18.933Z,8.68
2022-09-27T23:37:20.685Z,8.77
2022-09-27T23:40:22.324Z,8.72
2022-09-27T23:43:24.221Z,8.69
2022-09-27T23:46:27.526Z,8.73
2022-09-27T23:49:29.231Z,8.73
2022-09-27T23:52:30.834Z,8.70
2022-09-27T23:55:32.481Z,8.54
2022-09-27T23:58:34.104Z,8.49
